F/V Oceanis — FHLH — position and weather

sailwx.info

Track history (hours):
 
Tides and Currents Weather Stations Pressure Air Temp Water Temp Dewpoint Dewpoint Depression Visibility Wind Speed Wind Dir Waves Ship Positions

F/V Oceanis

Last reported at 2015-Feb-10 20:28 UTC. Time now 2015-May-25 07:30 UTC.
Position N 44°39' W 001°09'.
Warning: this ship's position is months out of date.

Length 16 m.

Type: Other ship. MMSI: 228385000.

Date/timePositionNaut miles runAvg speedWind from/ knotsBaromVisibWave heightAir tempDewpointWater temp
2015-Feb-10 20:28N 44°39' W 001°09'2 2.3
2015-Feb-10 19:34N 44°40' W 001°12'7 7.0
2015-Feb-10 18:34N 44°34' W 001°17'7 6.6
2015-Feb-10 17:34N 44°41' W 001°19'7 7.0
2015-Feb-10 16:33N 44°47' W 001°22'7 6.8
2015-Feb-10 15:34N 44°54' W 001°25'83 5.8
2015-Feb-10 01:20N 46°15' W 001°45'4 5.4
2015-Feb-10 00:33N 46°19' W 001°46'5 5.5
2015-Feb-09 23:33N 46°25' W 001°46'5 5.0
2015-Feb-09 22:34N 46°30' W 001°48'5 5.0
2015-Feb-09 21:34N 46°26' W 001°52'5 4.9
2015-Feb-09 20:33N 46°22' W 001°57'5 4.7
2015-Feb-09 19:33N 46°19' W 002°02'5 0.1
2015-Feb-08 07:33N 46°22' W 001°55'9 9.3
2015-Feb-08 06:33N 46°29' W 001°47'1 1.0
2015-Feb-08 05:33N 46°30' W 001°47'0 0.0
2015-Feb-08 04:34N 46°30' W 001°47'0 0.0
2015-Feb-08 03:33N 46°30' W 001°47'0 0.0
2015-Feb-08 02:33N 46°30' W 001°47'0 0.0
2015-Feb-08 01:33N 46°30' W 001°47'0 0.0
2015-Feb-08 00:33N 46°30' W 001°47'0 0.0
2015-Feb-07 23:34N 46°30' W 001°47'0 0.0
2015-Feb-07 22:33N 46°30' W 001°47'0 0.0
2015-Feb-07 21:33N 46°30' W 001°47'0 0.0
2015-Feb-07 20:33N 46°30' W 001°47'0 0.0
2015-Feb-07 19:33N 46°30' W 001°47'0 0.0
2015-Feb-07 18:34N 46°30' W 001°47'0 0.0
2015-Feb-07 17:34N 46°30' W 001°47'0 0.0
2015-Feb-07 16:33N 46°30' W 001°47'1 1.5
2015-Feb-07 15:34N 46°28' W 001°48'9 9.1
2015-Feb-07 14:33N 46°21' W 001°56'5 0.1
2015-Feb-06 03:11N 46°17' W 001°58'5 7.9
2015-Feb-06 02:32N 46°21' W 001°54'8 7.9
2015-Feb-06 01:33N 46°27' W 001°48'2 2.4
2015-Feb-06 00:33N 46°30' W 001°47'0 0.0
2015-Feb-05 23:33N 46°30' W 001°47'0 0.0
2015-Feb-05 22:34N 46°30' W 001°47'0 0.0
2015-Feb-05 21:33N 46°30' W 001°47'0 0.0
2015-Feb-05 20:33N 46°30' W 001°47'0 0.2
2015-Feb-05 19:34N 46°30' W 001°47'0 0.0
2015-Feb-05 18:33N 46°30' W 001°47'0 0.0
2015-Feb-05 17:33N 46°30' W 001°47'0 0.0
2015-Feb-05 16:33N 46°30' W 001°47'0 0.0
2015-Feb-05 07:19N 46°30' W 001°47'0 0.0
2015-Feb-05 06:33N 46°30' W 001°47'0 0.0
2015-Feb-05 05:33N 46°30' W 001°47'0 0.0
2015-Feb-05 04:33N 46°30' W 001°47'0 0.0
2015-Feb-05 03:33N 46°30' W 001°47'0 0.0
2015-Feb-05 02:33N 46°30' W 001°47'0 0.0
2015-Feb-05 01:33N 46°30' W 001°47'0 0.0
2015-Feb-05 00:33N 46°30' W 001°47'0 0.0
2015-Feb-04 23:33N 46°30' W 001°47'0 0.0
2015-Feb-04 22:33N 46°30' W 001°47'0 0.0
2015-Feb-04 21:33N 46°30' W 001°47'0 0.0
2015-Feb-04 20:33N 46°30' W 001°47'0 0.0
2015-Feb-04 19:33N 46°30' W 001°47'0 0.0
2015-Feb-04 18:33N 46°30' W 001°47'0 0.0
2015-Feb-04 17:33N 46°30' W 001°47'0 0.0
2015-Feb-04 16:33N 46°30' W 001°47'5 5.4
2015-Feb-04 15:33N 46°25' W 001°50'5 5.2
2015-Feb-04 14:33N 46°21' W 001°55'5 5.3
2015-Feb-04 13:33N 46°17' W 001°60'  
Track history (hours):
 
Tides and Currents Weather Stations Pressure Air Temp Water Temp Dewpoint Dewpoint Depression Visibility Wind Speed Wind Dir Waves Ship Positions

F/V Oceanis

Last reported at 2015-Feb-10 20:28 UTC. Time now 2015-May-25 07:30 UTC.
Position N 44°39' W 001°09'.
Warning: this ship's position is months out of date.

Length 16 m.

Type: Other ship. MMSI: 228385000.

Date/timePositionNaut miles runAvg speedWind from/ knotsBaromVisibWave heightAir tempDewpointWater temp
2015-Feb-10 20:28N 44°39' W 001°09'2 2.3
2015-Feb-10 19:34N 44°40' W 001°12'7 7.0
2015-Feb-10 18:34N 44°34' W 001°17'7 6.6
2015-Feb-10 17:34N 44°41' W 001°19'7 7.0
2015-Feb-10 16:33N 44°47' W 001°22'7 6.8
2015-Feb-10 15:34N 44°54' W 001°25'83 5.8
2015-Feb-10 01:20N 46°15' W 001°45'4 5.4
2015-Feb-10 00:33N 46°19' W 001°46'5 5.5
2015-Feb-09 23:33N 46°25' W 001°46'5 5.0
2015-Feb-09 22:34N 46°30' W 001°48'5 5.0
2015-Feb-09 21:34N 46°26' W 001°52'5 4.9
2015-Feb-09 20:33N 46°22' W 001°57'5 4.7
2015-Feb-09 19:33N 46°19' W 002°02'5 0.1
2015-Feb-08 07:33N 46°22' W 001°55'9 9.3
2015-Feb-08 06:33N 46°29' W 001°47'1 1.0
2015-Feb-08 05:33N 46°30' W 001°47'0 0.0
2015-Feb-08 04:34N 46°30' W 001°47'0 0.0
2015-Feb-08 03:33N 46°30' W 001°47'0 0.0
2015-Feb-08 02:33N 46°30' W 001°47'0 0.0
2015-Feb-08 01:33N 46°30' W 001°47'0 0.0
2015-Feb-08 00:33N 46°30' W 001°47'0 0.0
2015-Feb-07 23:34N 46°30' W 001°47'0 0.0
2015-Feb-07 22:33N 46°30' W 001°47'0 0.0
2015-Feb-07 21:33N 46°30' W 001°47'0 0.0
2015-Feb-07 20:33N 46°30' W 001°47'0 0.0
2015-Feb-07 19:33N 46°30' W 001°47'0 0.0
2015-Feb-07 18:34N 46°30' W 001°47'0 0.0
2015-Feb-07 17:34N 46°30' W 001°47'0 0.0
2015-Feb-07 16:33N 46°30' W 001°47'1 1.5
2015-Feb-07 15:34N 46°28' W 001°48'9 9.1
2015-Feb-07 14:33N 46°21' W 001°56'5 0.1
2015-Feb-06 03:11N 46°17' W 001°58'5 7.9
2015-Feb-06 02:32N 46°21' W 001°54'8 7.9
2015-Feb-06 01:33N 46°27' W 001°48'2 2.4
2015-Feb-06 00:33N 46°30' W 001°47'0 0.0
2015-Feb-05 23:33N 46°30' W 001°47'0 0.0
2015-Feb-05 22:34N 46°30' W 001°47'0 0.0
2015-Feb-05 21:33N 46°30' W 001°47'0 0.0
2015-Feb-05 20:33N 46°30' W 001°47'0 0.2
2015-Feb-05 19:34N 46°30' W 001°47'0 0.0
2015-Feb-05 18:33N 46°30' W 001°47'0 0.0
2015-Feb-05 17:33N 46°30' W 001°47'0 0.0
2015-Feb-05 16:33N 46°30' W 001°47'0 0.0
2015-Feb-05 07:19N 46°30' W 001°47'0 0.0
2015-Feb-05 06:33N 46°30' W 001°47'0 0.0
2015-Feb-05 05:33N 46°30' W 001°47'0 0.0
2015-Feb-05 04:33N 46°30' W 001°47'0 0.0
2015-Feb-05 03:33N 46°30' W 001°47'0 0.0
2015-Feb-05 02:33N 46°30' W 001°47'0 0.0
2015-Feb-05 01:33N 46°30' W 001°47'0 0.0
2015-Feb-05 00:33N 46°30' W 001°47'0 0.0
2015-Feb-04 23:33N 46°30' W 001°47'0 0.0
2015-Feb-04 22:33N 46°30' W 001°47'0 0.0
2015-Feb-04 21:33N 46°30' W 001°47'0 0.0
2015-Feb-04 20:33N 46°30' W 001°47'0 0.0
2015-Feb-04 19:33N 46°30' W 001°47'0 0.0
2015-Feb-04 18:33N 46°30' W 001°47'0 0.0
2015-Feb-04 17:33N 46°30' W 001°47'0 0.0
2015-Feb-04 16:33N 46°30' W 001°47'5 5.4
2015-Feb-04 15:33N 46°25' W 001°50'5 5.2
2015-Feb-04 14:33N 46°21' W 001°55'5 5.3
2015-Feb-04 13:33N 46°17' W 001°60'  

Dump ship's entire track history